createdAt,value
2023-03-30T00:06:24.910Z,99309.05
2023-03-30T00:10:03.585Z,99309.69
2023-03-30T00:13:38.626Z,99311.79
2023-03-30T00:22:54.830Z,99306.70
2023-03-30T00:26:30.958Z,99308.64
2023-03-30T00:30:13.556Z,99309.54
2023-03-30T00:33:46.325Z,99305.91
2023-03-30T00:42:23.877Z,99308.23
2023-03-30T00:46:44.431Z,99305.72
2023-03-30T00:50:17.836Z,99311.00
2023-03-30T00:54:05.260Z,99316.78
2023-03-30T01:03:28.975Z,99318.85
2023-03-30T01:12:20.279Z,99326.41
2023-03-30T01:16:26.181Z,99327.45
2023-03-30T01:20:44.046Z,99332.48
2023-03-30T01:24:51.908Z,99337.89
2023-03-30T01:29:13.148Z,99341.62
2023-03-30T01:33:33.987Z,99344.27
2023-03-30T01:37:48.142Z,99351.48
2023-03-30T01:42:07.615Z,99349.52
2023-03-30T01:46:11.862Z,99349.29
2023-03-30T01:50:23.880Z,99356.29
2023-03-30T01:54:03.387Z,99361.23
2023-03-30T01:58:08.165Z,99364.94
2023-03-30T02:07:30.907Z,99376.40
2023-03-30T02:10:53.327Z,99376.34
2023-03-30T02:14:52.341Z,99383.34
2023-03-30T02:18:55.858Z,99388.59
2023-03-30T02:22:27.854Z,99387.64
2023-03-30T02:30:12.993Z,99391.77
2023-03-30T02:33:59.141Z,99396.14
2023-03-30T02:37:54.493Z,99399.84
2023-03-30T02:41:58.367Z,99401.41
2023-03-30T02:45:50.310Z,99401.00
2023-03-30T02:54:32.568Z,99409.09
2023-03-30T02:59:25.052Z,99408.65
2023-03-30T03:03:09.515Z,99410.77
2023-03-30T03:06:42.073Z,99416.16
2023-03-30T03:10:36.824Z,99412.55
2023-03-30T03:14:50.554Z,99418.12
2023-03-30T03:18:42.054Z,99421.94
2023-03-30T03:23:05.186Z,99427.14
2023-03-30T03:36:23.775Z,99444.34
2023-03-30T03:40:11.055Z,99440.35
2023-03-30T03:50:00.898Z,99444.03
2023-03-30T03:53:40.139Z,99444.05
2023-03-30T03:57:07.945Z,99444.21
2023-03-30T04:00:49.390Z,99445.58
2023-03-30T04:12:08.846Z,99447.94
2023-03-30T04:16:30.132Z,99452.74
2023-03-30T04:20:42.627Z,99456.00
2023-03-30T04:25:47.032Z,99457.81
2023-03-30T04:30:15.226Z,99456.09
2023-03-30T04:34:47.071Z,99455.24
2023-03-30T04:38:39.829Z,99456.28
2023-03-30T04:43:43.516Z,99459.98
2023-03-30T04:48:32.660Z,99455.09
2023-03-30T04:52:46.421Z,99453.70
2023-03-30T05:02:37.419Z,99459.23
2023-03-30T05:07:37.481Z,99465.69
2023-03-30T05:17:34.114Z,99465.88
2023-03-30T05:47:31.949Z,99474.66
2023-03-30T06:48:15.877Z,99471.01
2023-03-30T06:52:03.902Z,99472.66
2023-03-30T06:55:18.685Z,99475.21
2023-03-30T06:58:57.846Z,99480.23
2023-03-30T07:02:07.466Z,99482.44
2023-03-30T07:05:44.801Z,99475.36
2023-03-30T07:08:58.909Z,99479.84
2023-03-30T07:12:15.351Z,99468.05
2023-03-30T07:15:21.431Z,99471.98
2023-03-30T07:18:30.280Z,99472.08
2023-03-30T07:21:37.329Z,99471.38
2023-03-30T07:25:42.275Z,99462.55
2023-03-30T07:29:38.952Z,99466.62
2023-03-30T07:33:26.828Z,99462.50
2023-03-30T07:37:07.766Z,99454.34
2023-03-30T07:41:14.824Z,99449.92
2023-03-30T07:45:43.933Z,99448.77
2023-03-30T07:49:29.104Z,99446.48
2023-03-30T07:53:15.032Z,99436.74
2023-03-30T08:16:36.214Z,99421.02
2023-03-30T08:30:40.795Z,99414.85
2023-03-30T08:39:25.519Z,99413.02
2023-03-30T08:44:02.815Z,99403.50
2023-03-30T08:48:03.784Z,99396.29
2023-03-30T08:51:56.311Z,99388.27
2023-03-30T09:06:31.010Z,99381.92
2023-03-30T09:11:17.696Z,99384.77
2023-03-30T09:20:11.978Z,99373.43
2023-03-30T09:29:35.403Z,99364.27
2023-03-30T09:33:45.428Z,99362.23
2023-03-30T09:37:52.083Z,99364.70
2023-03-30T09:46:50.209Z,99354.38
2023-03-30T09:50:36.125Z,99346.61
2023-03-30T09:54:14.236Z,99342.73
2023-03-30T09:57:58.448Z,99350.11
2023-03-30T10:11:18.816Z,99325.72
2023-03-30T10:15:08.242Z,99340.08
2023-03-30T10:19:04.379Z,99330.86
2023-03-30T10:43:26.652Z,99301.05
2023-03-30T10:52:17.961Z,99293.27
2023-03-30T11:06:18.395Z,99279.04
2023-03-30T11:31:48.008Z,99245.92
2023-03-30T11:35:23.568Z,99245.02
2023-03-30T11:38:49.555Z,99239.23
2023-03-30T11:43:08.073Z,99236.61
2023-03-30T11:47:05.148Z,99235.43
2023-03-30T11:54:21.599Z,99232.02
2023-03-30T11:58:06.886Z,99230.91
2023-03-30T12:02:07.818Z,99220.54
2023-03-30T12:05:36.705Z,99217.60
2023-03-30T12:09:00.206Z,99228.27
2023-03-30T12:12:40.011Z,99221.52
2023-03-30T12:16:31.716Z,99216.77
2023-03-30T12:20:20.825Z,99224.00
2023-03-30T12:28:05.641Z,99220.53
2023-03-30T12:31:15.788Z,99212.98
2023-03-30T12:34:23.877Z,99205.27
2023-03-30T12:37:35.883Z,99209.16
2023-03-30T12:51:49.917Z,99183.48
2023-03-30T13:06:07.320Z,99177.04
2023-03-30T13:19:21.983Z,99168.20
2023-03-30T13:22:31.271Z,99187.50
2023-03-30T13:25:39.500Z,99178.84
2023-03-30T13:28:59.483Z,99174.09
2023-03-30T13:32:07.381Z,99165.21
2023-03-30T13:35:22.136Z,99164.05
2023-03-30T13:38:31.122Z,99152.58
2023-03-30T13:41:54.544Z,99147.47
2023-03-30T13:45:09.294Z,99140.09
2023-03-30T13:48:28.776Z,99144.64
2023-03-30T13:51:32.156Z,99145.73
2023-03-30T13:54:38.033Z,99141.28
2023-03-30T13:57:43.959Z,99137.67
2023-03-30T14:05:20.006Z,99136.42
2023-03-30T14:08:24.107Z,99130.61
2023-03-30T14:11:39.358Z,99124.61
2023-03-30T14:14:50.165Z,99128.04
2023-03-30T14:17:58.791Z,99125.14
2023-03-30T14:21:10.257Z,99122.33
2023-03-30T14:24:17.386Z,99116.34
2023-03-30T14:27:19.961Z,99112.84
2023-03-30T14:30:26.995Z,99114.41
2023-03-30T14:33:40.483Z,99114.23
2023-03-30T14:36:45.634Z,99117.48
2023-03-30T14:39:56.134Z,99112.32
2023-03-30T14:42:59.542Z,99111.20
2023-03-30T14:46:05.842Z,99112.77
2023-03-30T14:49:20.436Z,99104.95
2023-03-30T14:52:32.491Z,99097.58
2023-03-30T14:55:35.257Z,99102.51
2023-03-30T14:58:39.264Z,99092.67
2023-03-30T15:01:43.549Z,99089.45
2023-03-30T15:04:47.811Z,99085.95
2023-03-30T15:07:51.423Z,99087.00
2023-03-30T15:10:57.703Z,99086.16
2023-03-30T15:26:27.671Z,99078.73
2023-03-30T15:29:32.348Z,99074.26
2023-03-30T15:32:43.708Z,99074.52
2023-03-30T15:35:51.916Z,99066.79
2023-03-30T15:38:58.902Z,99061.77
2023-03-30T15:42:03.133Z,99067.66
2023-03-30T15:45:13.294Z,99069.67
2023-03-30T15:48:43.149Z,99071.64
2023-03-30T15:51:58.255Z,99074.84
2023-03-30T15:55:22.542Z,99079.98
2023-03-30T15:58:28.712Z,99074.41
2023-03-30T16:01:47.338Z,99077.14
2023-03-30T16:04:51.928Z,99072.32
2023-03-30T16:07:55.891Z,99074.95
2023-03-30T16:11:07.620Z,99076.55
2023-03-30T16:14:20.474Z,99087.66
2023-03-30T16:17:28.858Z,99089.64
2023-03-30T16:20:36.137Z,99089.30
2023-03-30T16:23:39.630Z,99089.77
2023-03-30T16:26:43.753Z,99096.67
2023-03-30T16:29:48.324Z,99095.00
2023-03-30T16:32:52.054Z,99096.80
2023-03-30T16:35:55.874Z,99095.91
2023-03-30T16:38:59.696Z,99098.77
2023-03-30T16:42:03.709Z,99102.67
2023-03-30T16:45:08.886Z,99106.16
2023-03-30T16:48:17.070Z,99105.49
2023-03-30T16:51:20.474Z,99107.79
2023-03-30T16:54:32.569Z,99110.73
2023-03-30T16:57:36.890Z,99113.29
2023-03-30T17:00:44.584Z,99112.13
2023-03-30T17:03:49.351Z,99117.20
2023-03-30T17:06:55.142Z,99113.27
2023-03-30T17:10:00.855Z,99112.41
2023-03-30T17:13:09.560Z,99108.66
2023-03-30T17:16:34.547Z,99109.17
2023-03-30T17:19:41.085Z,99110.04
2023-03-30T17:22:44.744Z,99110.03
2023-03-30T17:25:49.511Z,99106.33
2023-03-30T17:28:55.114Z,99106.61
2023-03-30T17:32:01.799Z,99106.88
2023-03-30T17:35:06.098Z,99107.82
2023-03-30T17:38:10.235Z,99105.19
2023-03-30T17:41:17.215Z,99104.99
2023-03-30T17:44:21.756Z,99100.90
2023-03-30T17:47:25.183Z,99097.67
2023-03-30T17:50:37.216Z,99099.36
2023-03-30T17:53:43.061Z,99099.52
2023-03-30T17:56:48.143Z,99098.61
2023-03-30T17:59:54.100Z,99101.91
2023-03-30T18:05:11.542Z,99103.32
2023-03-30T18:08:17.988Z,99104.66
2023-03-30T18:11:27.369Z,99101.20
2023-03-30T18:14:31.163Z,99098.31
2023-03-30T18:17:38.045Z,99099.42
2023-03-30T18:20:45.918Z,99101.92
2023-03-30T18:23:48.728Z,99100.29
2023-03-30T18:26:51.547Z,99087.56
2023-03-30T18:29:56.657Z,99090.96
2023-03-30T18:33:00.002Z,99090.56
2023-03-30T18:36:05.530Z,99086.30
2023-03-30T18:39:19.151Z,99084.89
2023-03-30T18:42:21.420Z,99088.58
2023-03-30T18:45:26.897Z,99080.73
2023-03-30T18:48:29.563Z,99077.27
2023-03-30T18:51:31.967Z,99072.03
2023-03-30T18:54:40.227Z,99072.75
2023-03-30T18:57:43.636Z,99065.91
2023-03-30T19:00:51.671Z,99063.64
2023-03-30T19:03:53.997Z,99061.27
2023-03-30T19:06:55.906Z,99057.30
2023-03-30T19:09:57.853Z,99051.54
2023-03-30T19:13:00.231Z,99041.34
2023-03-30T19:16:08.633Z,99039.80
2023-03-30T19:19:14.067Z,99039.27
2023-03-30T19:22:20.565Z,99038.02
2023-03-30T19:25:28.340Z,99044.73
2023-03-30T19:28:35.150Z,99043.04
2023-03-30T19:31:37.338Z,99041.20
2023-03-30T19:34:40.011Z,99038.51
2023-03-30T19:37:43.282Z,99038.09
2023-03-30T19:40:46.276Z,99036.09
2023-03-30T19:43:49.748Z,99030.32
2023-03-30T19:46:51.752Z,99024.66
2023-03-30T19:49:55.453Z,99022.24
2023-03-30T19:52:59.168Z,99016.58
2023-03-30T19:56:01.223Z,99011.56
2023-03-30T19:59:03.776Z,99005.36
2023-03-30T20:02:06.829Z,99001.46
2023-03-30T20:05:09.948Z,99001.09
2023-03-30T20:08:21.268Z,98993.05
2023-03-30T20:11:27.674Z,98986.44
2023-03-30T20:14:30.761Z,98982.68
2023-03-30T20:17:33.775Z,98979.77
2023-03-30T20:20:36.835Z,98981.45
2023-03-30T20:23:39.394Z,98975.21
2023-03-30T20:26:42.177Z,98968.69
2023-03-30T20:29:44.166Z,98968.80
2023-03-30T20:32:53.175Z,98964.80
2023-03-30T20:36:07.597Z,98964.09
2023-03-30T20:39:09.808Z,98964.19
2023-03-30T20:42:11.966Z,98957.18
2023-03-30T20:45:14.150Z,98952.73
2023-03-30T20:48:26.346Z,98952.45
2023-03-30T20:51:29.366Z,98947.77
2023-03-30T20:54:32.549Z,98946.80
2023-03-30T20:57:34.559Z,98941.10
2023-03-30T21:00:36.678Z,98938.27
2023-03-30T21:03:49.729Z,98935.30
2023-03-30T21:06:51.745Z,98931.11
2023-03-30T21:09:53.739Z,98925.91
2023-03-30T21:12:55.612Z,98921.11
2023-03-30T21:16:04.557Z,98915.31
2023-03-30T21:19:09.059Z,98906.20
2023-03-30T21:22:12.252Z,98902.91
2023-03-30T21:25:14.546Z,98897.41
2023-03-30T21:28:18.258Z,98890.27
2023-03-30T21:31:21.076Z,98881.59
2023-03-30T21:34:24.117Z,98884.14
2023-03-30T21:37:26.419Z,98877.89
2023-03-30T21:40:28.546Z,98878.31
2023-03-30T21:43:39.628Z,98873.24
2023-03-30T21:46:42.294Z,98873.59
2023-03-30T21:49:44.290Z,98873.83
2023-03-30T21:52:46.945Z,98867.98
2023-03-30T21:55:50.566Z,98864.78
2023-03-30T21:58:53.168Z,98868.02
2023-03-30T22:04:50.531Z,98859.70
2023-03-30T22:07:53.938Z,98860.36
2023-03-30T22:11:00.163Z,98853.47
2023-03-30T22:14:04.092Z,98847.21
2023-03-30T22:17:11.607Z,98843.15
2023-03-30T22:20:18.780Z,98833.66
2023-03-30T22:23:22.302Z,98828.91
2023-03-30T22:26:27.987Z,98819.86
2023-03-30T22:29:31.435Z,98811.79
2023-03-30T22:32:35.234Z,98806.43
2023-03-30T22:35:41.204Z,98803.41
2023-03-30T22:38:46.441Z,98799.64
2023-03-30T22:41:50.593Z,98797.36
2023-03-30T22:44:53.875Z,98796.60
2023-03-30T22:47:58.451Z,98794.05
2023-03-30T22:51:05.280Z,98793.15
2023-03-30T22:54:09.078Z,98792.46
2023-03-30T22:57:13.109Z,98794.55
2023-03-30T23:00:18.241Z,98793.91
2023-03-30T23:03:22.872Z,98791.48
2023-03-30T23:06:27.485Z,98787.36
2023-03-30T23:09:32.325Z,98788.82
2023-03-30T23:12:36.231Z,98781.27
2023-03-30T23:15:39.623Z,98775.78
2023-03-30T23:18:43.226Z,98772.09
2023-03-30T23:21:48.284Z,98765.24
2023-03-30T23:24:53.097Z,98768.30
2023-03-30T23:27:58.348Z,98764.66
2023-03-30T23:31:13.524Z,98764.95
2023-03-30T23:34:17.736Z,98758.41
2023-03-30T23:37:22.683Z,98757.60
2023-03-30T23:40:26.291Z,98747.06
2023-03-30T23:43:30.295Z,98742.88
2023-03-30T23:46:34.551Z,98743.09
2023-03-30T23:49:38.254Z,98739.25
2023-03-30T23:52:41.532Z,98738.60
2023-03-30T23:55:44.821Z,98731.38
2023-03-30T23:58:48.211Z,98731.10
